sensor_id;sensor_type;location;lat;lon;timestamp;temperature;humidity
26342;DHT22;14054;50.108;8.640;2022-12-18T00:02:05;-6.80;99.90
26342;DHT22;14054;50.108;8.640;2022-12-18T00:04:30;-6.90;99.90
26342;DHT22;14054;50.108;8.640;2022-12-18T00:06:56;-6.90;99.90
26342;DHT22;14054;50.108;8.640;2022-12-18T00:09:21;-6.80;99.90
26342;DHT22;14054;50.108;8.640;2022-12-18T00:11:47;-6.80;99.90
26342;DHT22;14054;50.108;8.640;2022-12-18T00:14:13;-6.70;99.90
26342;DHT22;14054;50.108;8.640;2022-12-18T00:16:40;-6.70;99.90
26342;DHT22;14054;50.108;8.640;2022-12-18T00:19:09;-6.70;99.90
26342;DHT22;14054;50.108;8.640;2022-12-18T00:21:35;-6.80;99.90
26342;DHT22;14054;50.108;8.640;2022-12-18T00:24:00;-6.90;99.90
26342;DHT22;14054;50.108;8.640;2022-12-18T00:26:31;-6.90;99.90
26342;DHT22;14054;50.108;8.640;2022-12-18T00:29:06;-6.90;99.90
26342;DHT22;14054;50.108;8.640;2022-12-18T00:31:32;-7.00;99.90
26342;DHT22;14054;50.108;8.640;2022-12-18T00:33:58;-7.10;99.90
26342;DHT22;14054;50.108;8.640;2022-12-18T00:36:29;-7.10;99.90
26342;DHT22;14054;50.108;8.640;2022-12-18T00:38:57;-7.10;99.90
26342;DHT22;14054;50.108;8.640;2022-12-18T00:41:23;-7.10;99.90
26342;DHT22;14054;50.108;8.640;2022-12-18T00:44:10;-7.10;99.90
26342;DHT22;14054;50.108;8.640;2022-12-18T00:46:36;-7.10;99.90
26342;DHT22;14054;50.108;8.640;2022-12-18T00:49:02;-7.10;99.90
26342;DHT22;14054;50.108;8.640;2022-12-18T00:51:28;-7.10;99.90
26342;DHT22;14054;50.108;8.640;2022-12-18T00:53:54;-7.10;99.90
26342;DHT22;14054;50.108;8.640;2022-12-18T00:56:23;-7.10;99.90
26342;DHT22;14054;50.108;8.640;2022-12-18T00:58:49;-7.00;99.90
26342;DHT22;14054;50.108;8.640;2022-12-18T01:01:15;-7.00;99.90
26342;DHT22;14054;50.108;8.640;2022-12-18T01:03:40;-7.00;99.90
26342;DHT22;14054;50.108;8.640;2022-12-18T01:06:07;-7.00;99.90
26342;DHT22;14054;50.108;8.640;2022-12-18T01:08:33;-7.10;99.90
26342;DHT22;14054;50.108;8.640;2022-12-18T01:10:58;-7.10;99.90
26342;DHT22;14054;50.108;8.640;2022-12-18T01:13:24;-7.10;99.90
26342;DHT22;14054;50.108;8.640;2022-12-18T01:15:50;-7.10;99.90
26342;DHT22;14054;50.108;8.640;2022-12-18T01:18:15;-7.20;99.90
26342;DHT22;14054;50.108;8.640;2022-12-18T01:20:41;-7.30;99.90
26342;DHT22;14054;50.108;8.640;2022-12-18T01:23:06;-7.30;99.90
26342;DHT22;14054;50.108;8.640;2022-12-18T01:25:32;-7.30;99.90
26342;DHT22;14054;50.108;8.640;2022-12-18T01:27:57;-7.40;99.90
26342;DHT22;14054;50.108;8.640;2022-12-18T01:30:23;-7.40;99.90
26342;DHT22;14054;50.108;8.640;2022-12-18T01:32:48;-7.40;99.90
26342;DHT22;14054;50.108;8.640;2022-12-18T01:35:14;-7.40;99.90
26342;DHT22;14054;50.108;8.640;2022-12-18T01:37:39;-7.40;99.90
26342;DHT22;14054;50.108;8.640;2022-12-18T01:40:06;-7.40;99.90
26342;DHT22;14054;50.108;8.640;2022-12-18T01:42:31;-7.50;99.90
26342;DHT22;14054;50.108;8.640;2022-12-18T01:50:13;-7.60;99.90
26342;DHT22;14054;50.108;8.640;2022-12-18T01:52:42;-7.60;99.90
26342;DHT22;14054;50.108;8.640;2022-12-18T01:55:09;-7.60;99.90
26342;DHT22;14054;50.108;8.640;2022-12-18T01:57:35;-7.60;99.90
26342;DHT22;14054;50.108;8.640;2022-12-18T02:00:06;-7.60;99.90
26342;DHT22;14054;50.108;8.640;2022-12-18T02:02:32;-7.60;99.90
26342;DHT22;14054;50.108;8.640;2022-12-18T02:04:58;-7.50;99.90
26342;DHT22;14054;50.108;8.640;2022-12-18T02:10:19;-7.60;99.90
26342;DHT22;14054;50.108;8.640;2022-12-18T02:15:25;-7.50;99.90
26342;DHT22;14054;50.108;8.640;2022-12-18T02:18:00;-7.50;99.90
26342;DHT22;14054;50.108;8.640;2022-12-18T02:23:56;-7.50;99.90
26342;DHT22;14054;50.108;8.640;2022-12-18T02:26:37;-7.40;99.90
26342;DHT22;14054;50.108;8.640;2022-12-18T02:29:08;-7.50;99.90
26342;DHT22;14054;50.108;8.640;2022-12-18T02:31:39;-7.50;99.90
26342;DHT22;14054;50.108;8.640;2022-12-18T02:34:07;-7.40;99.90
26342;DHT22;14054;50.108;8.640;2022-12-18T02:36:36;-7.50;99.90
26342;DHT22;14054;50.108;8.640;2022-12-18T02:39:04;-7.50;99.90
26342;DHT22;14054;50.108;8.640;2022-12-18T02:41:31;-7.50;99.90
26342;DHT22;14054;50.108;8.640;2022-12-18T02:43:59;-7.50;99.90
26342;DHT22;14054;50.108;8.640;2022-12-18T02:46:32;-7.50;99.90
26342;DHT22;14054;50.108;8.640;2022-12-18T02:49:25;-7.50;99.90
26342;DHT22;14054;50.108;8.640;2022-12-18T02:52:05;-7.60;99.90
26342;DHT22;14054;50.108;8.640;2022-12-18T02:55:01;-7.60;99.90
26342;DHT22;14054;50.108;8.640;2022-12-18T02:59:58;-7.60;99.90
26342;DHT22;14054;50.108;8.640;2022-12-18T03:02:41;-7.60;99.90
26342;DHT22;14054;50.108;8.640;2022-12-18T03:05:17;-7.50;99.90
26342;DHT22;14054;50.108;8.640;2022-12-18T03:07:56;-7.50;99.90
26342;DHT22;14054;50.108;8.640;2022-12-18T03:10:26;-7.40;99.90
26342;DHT22;14054;50.108;8.640;2022-12-18T03:12:59;-7.50;99.90
26342;DHT22;14054;50.108;8.640;2022-12-18T03:15:30;-7.50;99.90
26342;DHT22;14054;50.108;8.640;2022-12-18T03:18:01;-7.50;99.90
26342;DHT22;14054;50.108;8.640;2022-12-18T03:20:30;-7.50;99.90
26342;DHT22;14054;50.108;8.640;2022-12-18T03:23:06;-7.50;99.90
26342;DHT22;14054;50.108;8.640;2022-12-18T03:25:33;-7.50;99.90
26342;DHT22;14054;50.108;8.640;2022-12-18T03:28:00;-7.50;99.90
26342;DHT22;14054;50.108;8.640;2022-12-18T03:30:30;-7.50;99.90
26342;DHT22;14054;50.108;8.640;2022-12-18T03:33:18;-7.50;99.90
26342;DHT22;14054;50.108;8.640;2022-12-18T03:35:45;-7.50;99.90
26342;DHT22;14054;50.108;8.640;2022-12-18T03:38:11;-7.50;99.90
26342;DHT22;14054;50.108;8.640;2022-12-18T03:40:49;-7.50;99.90
26342;DHT22;14054;50.108;8.640;2022-12-18T03:43:42;-7.50;99.90
26342;DHT22;14054;50.108;8.640;2022-12-18T03:46:29;-7.50;99.90
26342;DHT22;14054;50.108;8.640;2022-12-18T03:49:08;-7.50;99.90
26342;DHT22;14054;50.108;8.640;2022-12-18T03:51:52;-7.50;99.90
26342;DHT22;14054;50.108;8.640;2022-12-18T03:54:20;-7.50;99.90
26342;DHT22;14054;50.108;8.640;2022-12-18T03:56:51;-7.50;99.90
26342;DHT22;14054;50.108;8.640;2022-12-18T03:59:19;-7.50;99.90
26342;DHT22;14054;50.108;8.640;2022-12-18T04:01:47;-7.50;99.90
26342;DHT22;14054;50.108;8.640;2022-12-18T04:04:15;-7.50;99.90
26342;DHT22;14054;50.108;8.640;2022-12-18T04:06:42;-7.40;99.90
26342;DHT22;14054;50.108;8.640;2022-12-18T04:09:09;-7.40;99.90
26342;DHT22;14054;50.108;8.640;2022-12-18T04:11:35;-7.40;99.90
26342;DHT22;14054;50.108;8.640;2022-12-18T04:14:00;-7.40;99.90
26342;DHT22;14054;50.108;8.640;2022-12-18T04:16:27;-7.40;99.90
26342;DHT22;14054;50.108;8.640;2022-12-18T04:18:53;-7.40;99.90
26342;DHT22;14054;50.108;8.640;2022-12-18T04:21:19;-7.40;99.90
26342;DHT22;14054;50.108;8.640;2022-12-18T04:23:45;-7.40;99.90
26342;DHT22;14054;50.108;8.640;2022-12-18T04:26:10;-7.40;99.90
26342;DHT22;14054;50.108;8.640;2022-12-18T04:28:36;-7.40;99.90
26342;DHT22;14054;50.108;8.640;2022-12-18T04:31:01;-7.40;99.90
26342;DHT22;14054;50.108;8.640;2022-12-18T04:33:27;-7.40;99.90
26342;DHT22;14054;50.108;8.640;2022-12-18T04:35:53;-7.40;99.90
26342;DHT22;14054;50.108;8.640;2022-12-18T04:38:18;-7.40;99.90
26342;DHT22;14054;50.108;8.640;2022-12-18T04:40:44;-7.40;99.90
26342;DHT22;14054;50.108;8.640;2022-12-18T04:43:09;-7.40;99.90
26342;DHT22;14054;50.108;8.640;2022-12-18T04:45:36;-7.40;99.90
26342;DHT22;14054;50.108;8.640;2022-12-18T04:48:02;-7.40;99.90
26342;DHT22;14054;50.108;8.640;2022-12-18T04:50:28;-7.40;99.90
26342;DHT22;14054;50.108;8.640;2022-12-18T04:52:54;-7.30;99.90
26342;DHT22;14054;50.108;8.640;2022-12-18T04:55:20;-7.40;99.90
26342;DHT22;14054;50.108;8.640;2022-12-18T04:57:45;-7.40;99.90
26342;DHT22;14054;50.108;8.640;2022-12-18T05:00:11;-7.40;99.90
26342;DHT22;14054;50.108;8.640;2022-12-18T05:02:37;-7.40;99.90
26342;DHT22;14054;50.108;8.640;2022-12-18T05:05:03;-7.40;99.90
26342;DHT22;14054;50.108;8.640;2022-12-18T05:07:29;-7.40;99.90
26342;DHT22;14054;50.108;8.640;2022-12-18T05:09:54;-7.40;99.90
26342;DHT22;14054;50.108;8.640;2022-12-18T05:12:23;-7.40;99.90
26342;DHT22;14054;50.108;8.640;2022-12-18T05:14:48;-7.40;99.90
26342;DHT22;14054;50.108;8.640;2022-12-18T05:17:14;-7.40;99.90
26342;DHT22;14054;50.108;8.640;2022-12-18T05:19:39;-7.40;99.90
26342;DHT22;14054;50.108;8.640;2022-12-18T05:22:08;-7.40;99.90
26342;DHT22;14054;50.108;8.640;2022-12-18T05:24:33;-7.40;99.90
26342;DHT22;14054;50.108;8.640;2022-12-18T05:26:59;-7.30;99.90
26342;DHT22;14054;50.108;8.640;2022-12-18T05:29:25;-7.30;99.90
26342;DHT22;14054;50.108;8.640;2022-12-18T05:31:50;-7.30;99.90
26342;DHT22;14054;50.108;8.640;2022-12-18T05:34:16;-7.30;99.90
26342;DHT22;14054;50.108;8.640;2022-12-18T05:36:41;-7.30;99.90
26342;DHT22;14054;50.108;8.640;2022-12-18T05:39:07;-7.30;99.90
26342;DHT22;14054;50.108;8.640;2022-12-18T05:41:33;-7.30;99.90
26342;DHT22;14054;50.108;8.640;2022-12-18T05:43:58;-7.30;99.90
26342;DHT22;14054;50.108;8.640;2022-12-18T05:46:24;-7.30;99.90
26342;DHT22;14054;50.108;8.640;2022-12-18T05:48:49;-7.30;99.90
26342;DHT22;14054;50.108;8.640;2022-12-18T05:51:18;-7.30;99.90
26342;DHT22;14054;50.108;8.640;2022-12-18T05:53:44;-7.30;99.90
26342;DHT22;14054;50.108;8.640;2022-12-18T05:56:12;-7.30;99.90
26342;DHT22;14054;50.108;8.640;2022-12-18T05:58:38;-7.30;99.90
26342;DHT22;14054;50.108;8.640;2022-12-18T06:01:16;-7.20;99.90
26342;DHT22;14054;50.108;8.640;2022-12-18T06:03:42;-7.20;99.90
26342;DHT22;14054;50.108;8.640;2022-12-18T06:06:22;-7.30;99.90
26342;DHT22;14054;50.108;8.640;2022-12-18T06:08:49;-7.30;99.90
26342;DHT22;14054;50.108;8.640;2022-12-18T06:11:18;-7.30;99.90
26342;DHT22;14054;50.108;8.640;2022-12-18T06:13:44;-7.30;99.90
26342;DHT22;14054;50.108;8.640;2022-12-18T06:16:10;-7.20;99.90
26342;DHT22;14054;50.108;8.640;2022-12-18T06:18:35;-7.30;99.90
26342;DHT22;14054;50.108;8.640;2022-12-18T06:21:01;-7.20;99.90
26342;DHT22;14054;50.108;8.640;2022-12-18T06:23:27;-7.20;99.90
26342;DHT22;14054;50.108;8.640;2022-12-18T06:25:52;-7.20;99.90
26342;DHT22;14054;50.108;8.640;2022-12-18T06:28:18;-7.20;99.90
26342;DHT22;14054;50.108;8.640;2022-12-18T06:30:44;-7.20;99.90
26342;DHT22;14054;50.108;8.640;2022-12-18T06:33:10;-7.10;99.90
26342;DHT22;14054;50.108;8.640;2022-12-18T06:35:36;-7.20;99.90
26342;DHT22;14054;50.108;8.640;2022-12-18T06:38:02;-7.20;99.90
26342;DHT22;14054;50.108;8.640;2022-12-18T06:40:28;-7.20;99.90
26342;DHT22;14054;50.108;8.640;2022-12-18T06:42:53;-7.20;99.90
26342;DHT22;14054;50.108;8.640;2022-12-18T06:45:19;-7.20;99.90
26342;DHT22;14054;50.108;8.640;2022-12-18T06:47:44;-7.20;99.90
26342;DHT22;14054;50.108;8.640;2022-12-18T06:50:10;-7.20;99.90
26342;DHT22;14054;50.108;8.640;2022-12-18T06:52:35;-7.20;99.90
26342;DHT22;14054;50.108;8.640;2022-12-18T06:55:02;-7.20;99.90
26342;DHT22;14054;50.108;8.640;2022-12-18T06:57:27;-7.20;99.90
26342;DHT22;14054;50.108;8.640;2022-12-18T06:59:53;-7.20;99.90
26342;DHT22;14054;50.108;8.640;2022-12-18T07:02:18;-7.20;99.90
26342;DHT22;14054;50.108;8.640;2022-12-18T07:04:44;-7.20;99.90
26342;DHT22;14054;50.108;8.640;2022-12-18T07:07:09;-7.20;99.90
26342;DHT22;14054;50.108;8.640;2022-12-18T07:09:35;-7.20;99.90
26342;DHT22;14054;50.108;8.640;2022-12-18T07:12:00;-7.10;99.90
26342;DHT22;14054;50.108;8.640;2022-12-18T07:14:26;-7.10;99.90
26342;DHT22;14054;50.108;8.640;2022-12-18T07:16:51;-7.10;99.90
26342;DHT22;14054;50.108;8.640;2022-12-18T07:19:17;-7.10;99.90
26342;DHT22;14054;50.108;8.640;2022-12-18T07:21:42;-7.10;99.90
26342;DHT22;14054;50.108;8.640;2022-12-18T07:24:08;-7.10;99.90
26342;DHT22;14054;50.108;8.640;2022-12-18T07:26:33;-7.10;99.90
26342;DHT22;14054;50.108;8.640;2022-12-18T07:28:59;-7.10;99.90
26342;DHT22;14054;50.108;8.640;2022-12-18T07:31:25;-7.00;99.90
26342;DHT22;14054;50.108;8.640;2022-12-18T07:33:51;-7.00;99.90
26342;DHT22;14054;50.108;8.640;2022-12-18T07:36:17;-7.00;99.90
26342;DHT22;14054;50.108;8.640;2022-12-18T07:38:43;-7.00;99.90
26342;DHT22;14054;50.108;8.640;2022-12-18T07:41:11;-6.90;99.90
26342;DHT22;14054;50.108;8.640;2022-12-18T07:43:37;-6.90;99.90
26342;DHT22;14054;50.108;8.640;2022-12-18T07:46:03;-6.90;99.90
26342;DHT22;14054;50.108;8.640;2022-12-18T07:48:29;-6.80;99.90
26342;DHT22;14054;50.108;8.640;2022-12-18T07:50:59;-6.60;99.90
26342;DHT22;14054;50.108;8.640;2022-12-18T07:53:25;-6.50;99.90
26342;DHT22;14054;50.108;8.640;2022-12-18T07:55:56;-6.40;99.90
26342;DHT22;14054;50.108;8.640;2022-12-18T07:58:22;-6.30;99.90
26342;DHT22;14054;50.108;8.640;2022-12-18T08:00:47;-6.20;99.90
26342;DHT22;14054;50.108;8.640;2022-12-18T08:03:12;-6.10;99.90
26342;DHT22;14054;50.108;8.640;2022-12-18T08:05:38;-6.10;99.90
26342;DHT22;14054;50.108;8.640;2022-12-18T08:08:04;-6.00;99.90
26342;DHT22;14054;50.108;8.640;2022-12-18T08:10:29;-5.90;99.90
26342;DHT22;14054;50.108;8.640;2022-12-18T08:12:54;-5.80;99.90
26342;DHT22;14054;50.108;8.640;2022-12-18T08:15:20;-5.80;99.90
26342;DHT22;14054;50.108;8.640;2022-12-18T08:17:45;-5.70;99.90
26342;DHT22;14054;50.108;8.640;2022-12-18T08:20:11;-5.60;99.90
26342;DHT22;14054;50.108;8.640;2022-12-18T08:22:38;-5.60;99.90
26342;DHT22;14054;50.108;8.640;2022-12-18T08:25:05;-5.60;99.90
26342;DHT22;14054;50.108;8.640;2022-12-18T08:27:30;-5.60;99.90
26342;DHT22;14054;50.108;8.640;2022-12-18T08:29:57;-5.50;99.90
26342;DHT22;14054;50.108;8.640;2022-12-18T08:32:24;-5.40;99.90
26342;DHT22;14054;50.108;8.640;2022-12-18T08:34:50;-5.30;99.90
26342;DHT22;14054;50.108;8.640;2022-12-18T08:37:15;-5.20;99.90
26342;DHT22;14054;50.108;8.640;2022-12-18T08:39:40;-5.20;99.90
26342;DHT22;14054;50.108;8.640;2022-12-18T08:42:06;-5.00;99.90
26342;DHT22;14054;50.108;8.640;2022-12-18T08:44:50;-5.00;99.90
26342;DHT22;14054;50.108;8.640;2022-12-18T08:49:41;-4.60;99.90
26342;DHT22;14054;50.108;8.640;2022-12-18T08:52:07;-4.70;99.90
26342;DHT22;14054;50.108;8.640;2022-12-18T08:54:32;-4.70;99.90
26342;DHT22;14054;50.108;8.640;2022-12-18T08:56:58;-4.60;99.90
26342;DHT22;14054;50.108;8.640;2022-12-18T08:59:23;-4.80;99.90
26342;DHT22;14054;50.108;8.640;2022-12-18T09:01:49;-4.70;99.90
26342;DHT22;14054;50.108;8.640;2022-12-18T09:04:15;-4.80;99.90
26342;DHT22;14054;50.108;8.640;2022-12-18T09:06:40;-4.70;99.90
26342;DHT22;14054;50.108;8.640;2022-12-18T09:09:06;-4.70;99.90
26342;DHT22;14054;50.108;8.640;2022-12-18T09:11:32;-4.70;99.90
26342;DHT22;14054;50.108;8.640;2022-12-18T09:13:59;-4.70;99.90
26342;DHT22;14054;50.108;8.640;2022-12-18T09:16:26;-4.60;99.90
26342;DHT22;14054;50.108;8.640;2022-12-18T09:18:56;-4.60;99.90
26342;DHT22;14054;50.108;8.640;2022-12-18T09:21:26;-4.60;99.90
26342;DHT22;14054;50.108;8.640;2022-12-18T09:23:54;-4.50;99.90
26342;DHT22;14054;50.108;8.640;2022-12-18T09:26:21;-4.50;99.90
26342;DHT22;14054;50.108;8.640;2022-12-18T09:28:46;-4.40;99.90
26342;DHT22;14054;50.108;8.640;2022-12-18T09:31:13;-4.40;99.90
26342;DHT22;14054;50.108;8.640;2022-12-18T09:36:06;-4.20;99.90
26342;DHT22;14054;50.108;8.640;2022-12-18T09:38:33;-4.00;99.90
26342;DHT22;14054;50.108;8.640;2022-12-18T09:41:15;-3.90;99.90
26342;DHT22;14054;50.108;8.640;2022-12-18T09:43:45;-3.80;99.90
26342;DHT22;14054;50.108;8.640;2022-12-18T09:46:23;-3.80;99.90
26342;DHT22;14054;50.108;8.640;2022-12-18T09:48:52;-3.80;99.90
26342;DHT22;14054;50.108;8.640;2022-12-18T09:51:24;-3.60;99.90
26342;DHT22;14054;50.108;8.640;2022-12-18T09:53:55;-3.50;99.90
26342;DHT22;14054;50.108;8.640;2022-12-18T09:56:25;-3.50;99.90
26342;DHT22;14054;50.108;8.640;2022-12-18T09:58:59;-3.60;99.90
26342;DHT22;14054;50.108;8.640;2022-12-18T10:01:27;-3.90;99.90
26342;DHT22;14054;50.108;8.640;2022-12-18T10:03:54;-3.70;99.90
26342;DHT22;14054;50.108;8.640;2022-12-18T10:06:44;-3.60;99.90
26342;DHT22;14054;50.108;8.640;2022-12-18T10:14:51;-3.60;99.90
26342;DHT22;14054;50.108;8.640;2022-12-18T10:17:42;-3.40;99.90
26342;DHT22;14054;50.108;8.640;2022-12-18T10:28:26;-3.20;99.90
26342;DHT22;14054;50.108;8.640;2022-12-18T10:30:54;-3.00;99.90
26342;DHT22;14054;50.108;8.640;2022-12-18T10:33:23;-2.80;99.90
26342;DHT22;14054;50.108;8.640;2022-12-18T10:35:50;-2.80;99.90
26342;DHT22;14054;50.108;8.640;2022-12-18T10:40:57;-3.10;99.90
26342;DHT22;14054;50.108;8.640;2022-12-18T10:46:00;-3.20;99.90
26342;DHT22;14054;50.108;8.640;2022-12-18T10:48:26;-3.40;99.90
26342;DHT22;14054;50.108;8.640;2022-12-18T10:50:53;-3.30;99.90
26342;DHT22;14054;50.108;8.640;2022-12-18T10:53:27;-3.40;99.90
26342;DHT22;14054;50.108;8.640;2022-12-18T10:55:53;-3.00;99.90
26342;DHT22;14054;50.108;8.640;2022-12-18T10:58:31;-2.70;99.90
26342;DHT22;14054;50.108;8.640;2022-12-18T11:01:12;-2.60;99.90
26342;DHT22;14054;50.108;8.640;2022-12-18T11:03:43;-2.20;99.90
26342;DHT22;14054;50.108;8.640;2022-12-18T11:06:17;-1.80;99.90
26342;DHT22;14054;50.108;8.640;2022-12-18T11:08:56;-2.10;99.90
26342;DHT22;14054;50.108;8.640;2022-12-18T11:11:23;-2.60;99.90
26342;DHT22;14054;50.108;8.640;2022-12-18T11:14:04;-2.40;99.90
26342;DHT22;14054;50.108;8.640;2022-12-18T11:16:42;-1.80;99.90
26342;DHT22;14054;50.108;8.640;2022-12-18T11:21:55;-1.40;99.90
26342;DHT22;14054;50.108;8.640;2022-12-18T11:24:32;-2.10;99.90
26342;DHT22;14054;50.108;8.640;2022-12-18T11:27:01;-2.30;99.90
26342;DHT22;14054;50.108;8.640;2022-12-18T11:29:36;-1.20;99.90
26342;DHT22;14054;50.108;8.640;2022-12-18T11:34:42;-1.80;99.90
26342;DHT22;14054;50.108;8.640;2022-12-18T11:37:12;-2.00;99.90
26342;DHT22;14054;50.108;8.640;2022-12-18T11:39:42;-2.20;99.90
26342;DHT22;14054;50.108;8.640;2022-12-18T11:42:17;-2.20;99.90
26342;DHT22;14054;50.108;8.640;2022-12-18T11:45:54;-2.40;99.90
26342;DHT22;14054;50.108;8.640;2022-12-18T11:50:24;-2.60;99.90
26342;DHT22;14054;50.108;8.640;2022-12-18T11:52:50;-2.80;99.90
26342;DHT22;14054;50.108;8.640;2022-12-18T11:58:20;-2.10;99.90
26342;DHT22;14054;50.108;8.640;2022-12-18T12:01:13;-2.50;99.90
26342;DHT22;14054;50.108;8.640;2022-12-18T12:06:34;-2.50;99.90
26342;DHT22;14054;50.108;8.640;2022-12-18T12:09:16;-2.50;99.90
26342;DHT22;14054;50.108;8.640;2022-12-18T12:12:04;-2.40;99.90
26342;DHT22;14054;50.108;8.640;2022-12-18T12:15:06;-2.60;99.90
26342;DHT22;14054;50.108;8.640;2022-12-18T12:17:54;-2.70;99.90
26342;DHT22;14054;50.108;8.640;2022-12-18T12:23:40;-2.50;99.90
26342;DHT22;14054;50.108;8.640;2022-12-18T12:26:10;-2.80;99.90
26342;DHT22;14054;50.108;8.640;2022-12-18T12:29:00;-2.80;99.90
26342;DHT22;14054;50.108;8.640;2022-12-18T12:31:46;-3.30;99.90
26342;DHT22;14054;50.108;8.640;2022-12-18T12:37:29;-3.30;99.90
26342;DHT22;14054;50.108;8.640;2022-12-18T12:39:56;-3.40;99.90
26342;DHT22;14054;50.108;8.640;2022-12-18T12:42:35;-3.30;99.90
26342;DHT22;14054;50.108;8.640;2022-12-18T12:45:28;-3.30;99.90
26342;DHT22;14054;50.108;8.640;2022-12-18T12:47:57;-3.10;99.90
26342;DHT22;14054;50.108;8.640;2022-12-18T12:50:23;-3.00;99.90
26342;DHT22;14054;50.108;8.640;2022-12-18T12:52:52;-3.30;99.90
26342;DHT22;14054;50.108;8.640;2022-12-18T12:55:25;-3.30;99.90
26342;DHT22;14054;50.108;8.640;2022-12-18T12:58:14;-3.30;99.90
26342;DHT22;14054;50.108;8.640;2022-12-18T13:00:49;-3.10;99.90
26342;DHT22;14054;50.108;8.640;2022-12-18T13:03:43;-2.80;99.90
26342;DHT22;14054;50.108;8.640;2022-12-18T13:06:19;-2.80;99.90
26342;DHT22;14054;50.108;8.640;2022-12-18T13:08:57;-3.00;99.90
26342;DHT22;14054;50.108;8.640;2022-12-18T13:11:41;-2.90;99.90
26342;DHT22;14054;50.108;8.640;2022-12-18T13:14:37;-3.00;99.90
26342;DHT22;14054;50.108;8.640;2022-12-18T13:19:43;-3.00;99.90
26342;DHT22;14054;50.108;8.640;2022-12-18T13:22:23;-3.10;99.90
26342;DHT22;14054;50.108;8.640;2022-12-18T13:24:49;-2.90;99.90
26342;DHT22;14054;50.108;8.640;2022-12-18T13:30:41;-2.80;99.90
26342;DHT22;14054;50.108;8.640;2022-12-18T13:38:39;-2.90;99.90
26342;DHT22;14054;50.108;8.640;2022-12-18T13:41:22;-2.80;99.90
26342;DHT22;14054;50.108;8.640;2022-12-18T13:43:49;-2.90;99.90
26342;DHT22;14054;50.108;8.640;2022-12-18T13:46:42;-3.00;99.90
26342;DHT22;14054;50.108;8.640;2022-12-18T13:51:46;-3.00;99.90
26342;DHT22;14054;50.108;8.640;2022-12-18T13:54:27;-3.00;99.90
26342;DHT22;14054;50.108;8.640;2022-12-18T13:56:54;-2.90;99.90
26342;DHT22;14054;50.108;8.640;2022-12-18T13:59:32;-3.10;99.90
26342;DHT22;14054;50.108;8.640;2022-12-18T14:02:00;-3.20;99.90
26342;DHT22;14054;50.108;8.640;2022-12-18T14:04:30;-3.20;99.90
26342;DHT22;14054;50.108;8.640;2022-12-18T14:07:12;-3.10;99.90
26342;DHT22;14054;50.108;8.640;2022-12-18T14:09:45;-3.10;99.90
26342;DHT22;14054;50.108;8.640;2022-12-18T14:12:32;-3.10;99.90
26342;DHT22;14054;50.108;8.640;2022-12-18T14:17:54;-3.20;99.90
26342;DHT22;14054;50.108;8.640;2022-12-18T14:20:21;-3.20;99.90
26342;DHT22;14054;50.108;8.640;2022-12-18T14:22:48;-3.20;99.90
26342;DHT22;14054;50.108;8.640;2022-12-18T14:25:19;-3.20;99.90
26342;DHT22;14054;50.108;8.640;2022-12-18T14:27:50;-3.20;99.90
26342;DHT22;14054;50.108;8.640;2022-12-18T14:30:37;-3.10;99.90
26342;DHT22;14054;50.108;8.640;2022-12-18T14:35:33;-3.10;99.90
26342;DHT22;14054;50.108;8.640;2022-12-18T14:38:24;-3.10;99.90
26342;DHT22;14054;50.108;8.640;2022-12-18T14:41:14;-3.10;99.90
26342;DHT22;14054;50.108;8.640;2022-12-18T14:43:45;-3.10;99.90
26342;DHT22;14054;50.108;8.640;2022-12-18T14:48:59;-3.20;99.90
26342;DHT22;14054;50.108;8.640;2022-12-18T14:51:30;-3.20;99.90
26342;DHT22;14054;50.108;8.640;2022-12-18T14:53:57;-3.20;99.90
26342;DHT22;14054;50.108;8.640;2022-12-18T14:56:29;-3.20;99.90
26342;DHT22;14054;50.108;8.640;2022-12-18T14:58:58;-3.20;99.90
26342;DHT22;14054;50.108;8.640;2022-12-18T15:01:30;-3.20;99.90
26342;DHT22;14054;50.108;8.640;2022-12-18T15:03:58;-3.20;99.90
26342;DHT22;14054;50.108;8.640;2022-12-18T15:06:36;-3.20;99.90
26342;DHT22;14054;50.108;8.640;2022-12-18T15:09:05;-3.20;99.90
26342;DHT22;14054;50.108;8.640;2022-12-18T15:11:46;-3.20;99.90
26342;DHT22;14054;50.108;8.640;2022-12-18T15:16:56;-3.20;99.90
26342;DHT22;14054;50.108;8.640;2022-12-18T15:19:30;-3.20;99.90
26342;DHT22;14054;50.108;8.640;2022-12-18T15:21:57;-3.20;99.90
26342;DHT22;14054;50.108;8.640;2022-12-18T15:24:27;-3.20;99.90
26342;DHT22;14054;50.108;8.640;2022-12-18T15:26:54;-3.20;99.90
26342;DHT22;14054;50.108;8.640;2022-12-18T15:29:23;-3.20;99.90
26342;DHT22;14054;50.108;8.640;2022-12-18T15:32:17;-3.20;99.90
26342;DHT22;14054;50.108;8.640;2022-12-18T15:34:44;-3.20;99.90
26342;DHT22;14054;50.108;8.640;2022-12-18T15:37:09;-3.10;99.90
26342;DHT22;14054;50.108;8.640;2022-12-18T15:39:34;-3.00;99.90
26342;DHT22;14054;50.108;8.640;2022-12-18T15:42:01;-3.10;99.90
26342;DHT22;14054;50.108;8.640;2022-12-18T15:44:45;-3.10;99.90
26342;DHT22;14054;50.108;8.640;2022-12-18T15:47:12;-3.10;99.90
26342;DHT22;14054;50.108;8.640;2022-12-18T15:49:38;-3.10;99.90
26342;DHT22;14054;50.108;8.640;2022-12-18T15:52:04;-3.10;99.90
26342;DHT22;14054;50.108;8.640;2022-12-18T15:54:30;-3.10;99.90
26342;DHT22;14054;50.108;8.640;2022-12-18T15:57:14;-3.00;99.90
26342;DHT22;14054;50.108;8.640;2022-12-18T15:59:52;-3.00;99.90
26342;DHT22;14054;50.108;8.640;2022-12-18T16:02:19;-3.00;99.90
26342;DHT22;14054;50.108;8.640;2022-12-18T16:04:45;-3.10;99.90
26342;DHT22;14054;50.108;8.640;2022-12-18T16:07:11;-3.00;99.90
26342;DHT22;14054;50.108;8.640;2022-12-18T16:09:37;-3.00;99.90
26342;DHT22;14054;50.108;8.640;2022-12-18T16:12:04;-3.00;99.90
26342;DHT22;14054;50.108;8.640;2022-12-18T16:14:30;-3.10;99.90
26342;DHT22;14054;50.108;8.640;2022-12-18T16:17:05;-3.10;99.90
26342;DHT22;14054;50.108;8.640;2022-12-18T16:19:31;-3.10;99.90
26342;DHT22;14054;50.108;8.640;2022-12-18T16:21:57;-3.10;99.90
26342;DHT22;14054;50.108;8.640;2022-12-18T16:24:28;-3.00;99.90
26342;DHT22;14054;50.108;8.640;2022-12-18T16:26:55;-3.00;99.90
26342;DHT22;14054;50.108;8.640;2022-12-18T16:29:24;-3.00;99.90
26342;DHT22;14054;50.108;8.640;2022-12-18T16:31:53;-3.00;99.90
26342;DHT22;14054;50.108;8.640;2022-12-18T16:34:21;-3.00;99.90
26342;DHT22;14054;50.108;8.640;2022-12-18T16:36:52;-3.00;99.90
26342;DHT22;14054;50.108;8.640;2022-12-18T16:39:19;-3.00;99.90
26342;DHT22;14054;50.108;8.640;2022-12-18T16:41:45;-3.00;99.90
26342;DHT22;14054;50.108;8.640;2022-12-18T16:44:11;-3.00;99.90
26342;DHT22;14054;50.108;8.640;2022-12-18T16:46:37;-3.00;99.90
26342;DHT22;14054;50.108;8.640;2022-12-18T16:49:03;-3.00;99.90
26342;DHT22;14054;50.108;8.640;2022-12-18T16:51:29;-2.90;99.90
26342;DHT22;14054;50.108;8.640;2022-12-18T16:53:55;-2.80;99.90
26342;DHT22;14054;50.108;8.640;2022-12-18T16:56:24;-2.90;99.90
26342;DHT22;14054;50.108;8.640;2022-12-18T16:58:54;-2.90;99.90
26342;DHT22;14054;50.108;8.640;2022-12-18T17:01:20;-2.90;99.90
26342;DHT22;14054;50.108;8.640;2022-12-18T17:03:53;-2.90;99.90
26342;DHT22;14054;50.108;8.640;2022-12-18T17:06:19;-2.90;99.90
26342;DHT22;14054;50.108;8.640;2022-12-18T17:08:45;-2.90;99.90
26342;DHT22;14054;50.108;8.640;2022-12-18T17:11:10;-3.00;99.90
26342;DHT22;14054;50.108;8.640;2022-12-18T17:13:36;-2.90;99.90